sensor_id;sensor_type;location;lat;lon;timestamp;temperature;humidity
37974;DHT22;23796;51.458;7.000;2023-07-31T00:01:58;17.00;99.90
37974;DHT22;23796;51.458;7.000;2023-07-31T00:04:23;17.00;99.90
37974;DHT22;23796;51.458;7.000;2023-07-31T00:06:49;17.00;99.90
37974;DHT22;23796;51.458;7.000;2023-07-31T00:09:14;17.00;99.90
37974;DHT22;23796;51.458;7.000;2023-07-31T00:11:40;17.10;99.90
37974;DHT22;23796;51.458;7.000;2023-07-31T00:14:05;17.00;99.90
37974;DHT22;23796;51.458;7.000;2023-07-31T00:16:31;17.00;99.90
37974;DHT22;23796;51.458;7.000;2023-07-31T00:18:57;17.00;99.90
37974;DHT22;23796;51.458;7.000;2023-07-31T00:21:22;17.00;99.90
37974;DHT22;23796;51.458;7.000;2023-07-31T00:23:48;17.00;99.90
37974;DHT22;23796;51.458;7.000;2023-07-31T00:26:13;17.00;99.90
37974;DHT22;23796;51.458;7.000;2023-07-31T00:28:39;16.90;99.90
37974;DHT22;23796;51.458;7.000;2023-07-31T00:31:04;16.90;99.90
37974;DHT22;23796;51.458;7.000;2023-07-31T00:33:34;16.90;99.90
37974;DHT22;23796;51.458;7.000;2023-07-31T00:36:03;16.90;99.90
37974;DHT22;23796;51.458;7.000;2023-07-31T00:38:28;16.90;99.90
37974;DHT22;23796;51.458;7.000;2023-07-31T00:40:54;16.90;99.90
37974;DHT22;23796;51.458;7.000;2023-07-31T00:43:20;17.00;99.90
37974;DHT22;23796;51.458;7.000;2023-07-31T00:45:45;17.00;99.90
37974;DHT22;23796;51.458;7.000;2023-07-31T00:48:11;17.00;99.90
37974;DHT22;23796;51.458;7.000;2023-07-31T00:50:37;17.00;99.90
37974;DHT22;23796;51.458;7.000;2023-07-31T00:53:04;17.10;99.90
37974;DHT22;23796;51.458;7.000;2023-07-31T00:55:35;17.10;99.90
37974;DHT22;23796;51.458;7.000;2023-07-31T00:58:00;17.10;99.90
37974;DHT22;23796;51.458;7.000;2023-07-31T01:00:26;17.20;99.90
37974;DHT22;23796;51.458;7.000;2023-07-31T01:02:52;17.20;99.90
37974;DHT22;23796;51.458;7.000;2023-07-31T01:05:58;17.20;99.90
37974;DHT22;23796;51.458;7.000;2023-07-31T01:08:22;17.20;99.90
37974;DHT22;23796;51.458;7.000;2023-07-31T01:10:58;17.20;99.90
37974;DHT22;23796;51.458;7.000;2023-07-31T01:13:25;17.20;99.90
37974;DHT22;23796;51.458;7.000;2023-07-31T01:15:51;17.10;99.90
37974;DHT22;23796;51.458;7.000;2023-07-31T01:18:17;17.10;99.90
37974;DHT22;23796;51.458;7.000;2023-07-31T01:20:57;17.10;99.90
37974;DHT22;23796;51.458;7.000;2023-07-31T01:23:51;17.10;99.90
37974;DHT22;23796;51.458;7.000;2023-07-31T01:26:24;17.10;99.90
37974;DHT22;23796;51.458;7.000;2023-07-31T01:29:07;17.20;99.90
37974;DHT22;23796;51.458;7.000;2023-07-31T01:31:35;17.10;99.90
37974;DHT22;23796;51.458;7.000;2023-07-31T01:34:02;17.10;99.90
37974;DHT22;23796;51.458;7.000;2023-07-31T01:36:30;17.20;99.90
37974;DHT22;23796;51.458;7.000;2023-07-31T01:39:00;17.20;99.90
37974;DHT22;23796;51.458;7.000;2023-07-31T01:41:26;17.20;99.90
37974;DHT22;23796;51.458;7.000;2023-07-31T01:43:51;17.20;99.90
37974;DHT22;23796;51.458;7.000;2023-07-31T01:46:17;17.20;99.90
37974;DHT22;23796;51.458;7.000;2023-07-31T01:48:43;17.20;99.90
37974;DHT22;23796;51.458;7.000;2023-07-31T01:51:08;17.10;99.90
37974;DHT22;23796;51.458;7.000;2023-07-31T01:53:34;17.20;99.90
37974;DHT22;23796;51.458;7.000;2023-07-31T01:56:00;17.20;99.90
37974;DHT22;23796;51.458;7.000;2023-07-31T01:58:25;17.10;99.90
37974;DHT22;23796;51.458;7.000;2023-07-31T02:00:51;17.20;99.90
37974;DHT22;23796;51.458;7.000;2023-07-31T02:03:16;17.20;99.90
37974;DHT22;23796;51.458;7.000;2023-07-31T02:05:46;17.20;99.90
37974;DHT22;23796;51.458;7.000;2023-07-31T02:08:12;17.20;99.80
37974;DHT22;23796;51.458;7.000;2023-07-31T02:10:38;17.20;99.70
37974;DHT22;23796;51.458;7.000;2023-07-31T02:13:03;17.20;99.50
37974;DHT22;23796;51.458;7.000;2023-07-31T02:15:30;17.20;99.50
37974;DHT22;23796;51.458;7.000;2023-07-31T02:17:55;17.20;99.40
37974;DHT22;23796;51.458;7.000;2023-07-31T02:20:23;17.10;99.40
37974;DHT22;23796;51.458;7.000;2023-07-31T02:22:49;17.10;99.60
37974;DHT22;23796;51.458;7.000;2023-07-31T02:25:17;17.10;99.70
37974;DHT22;23796;51.458;7.000;2023-07-31T02:27:43;17.10;99.30
37974;DHT22;23796;51.458;7.000;2023-07-31T02:30:09;17.20;99.30
37974;DHT22;23796;51.458;7.000;2023-07-31T02:32:34;17.20;98.90
37974;DHT22;23796;51.458;7.000;2023-07-31T02:35:00;17.20;99.20
37974;DHT22;23796;51.458;7.000;2023-07-31T02:37:26;17.20;99.00
37974;DHT22;23796;51.458;7.000;2023-07-31T02:39:53;17.20;98.70
37974;DHT22;23796;51.458;7.000;2023-07-31T02:42:19;17.20;98.40
37974;DHT22;23796;51.458;7.000;2023-07-31T02:44:45;17.20;98.50
37974;DHT22;23796;51.458;7.000;2023-07-31T02:47:10;17.10;98.60
37974;DHT22;23796;51.458;7.000;2023-07-31T02:49:36;17.10;98.80
37974;DHT22;23796;51.458;7.000;2023-07-31T02:52:01;17.10;98.50
37974;DHT22;23796;51.458;7.000;2023-07-31T02:54:27;17.10;98.40
37974;DHT22;23796;51.458;7.000;2023-07-31T02:56:53;17.10;98.30
37974;DHT22;23796;51.458;7.000;2023-07-31T02:59:18;17.10;98.40
37974;DHT22;23796;51.458;7.000;2023-07-31T03:01:44;17.10;98.60
37974;DHT22;23796;51.458;7.000;2023-07-31T03:04:09;17.10;98.30
37974;DHT22;23796;51.458;7.000;2023-07-31T03:06:35;17.20;98.30
37974;DHT22;23796;51.458;7.000;2023-07-31T03:09:03;17.10;98.40
37974;DHT22;23796;51.458;7.000;2023-07-31T03:11:29;17.10;98.30
37974;DHT22;23796;51.458;7.000;2023-07-31T03:13:57;17.10;98.30
37974;DHT22;23796;51.458;7.000;2023-07-31T03:16:22;17.10;98.50
37974;DHT22;23796;51.458;7.000;2023-07-31T03:18:52;17.20;98.10
37974;DHT22;23796;51.458;7.000;2023-07-31T03:21:18;17.20;98.40
37974;DHT22;23796;51.458;7.000;2023-07-31T03:23:43;17.20;98.40
37974;DHT22;23796;51.458;7.000;2023-07-31T03:26:09;17.20;98.50
37974;DHT22;23796;51.458;7.000;2023-07-31T03:28:35;17.20;98.70
37974;DHT22;23796;51.458;7.000;2023-07-31T03:31:00;17.20;98.80
37974;DHT22;23796;51.458;7.000;2023-07-31T03:33:26;17.20;98.60
37974;DHT22;23796;51.458;7.000;2023-07-31T03:35:52;17.30;98.50
37974;DHT22;23796;51.458;7.000;2023-07-31T03:38:18;17.30;98.50
37974;DHT22;23796;51.458;7.000;2023-07-31T03:40:44;17.30;98.50
37974;DHT22;23796;51.458;7.000;2023-07-31T03:43:10;17.30;98.50
37974;DHT22;23796;51.458;7.000;2023-07-31T03:45:35;17.30;98.30
37974;DHT22;23796;51.458;7.000;2023-07-31T03:48:01;17.30;98.30
37974;DHT22;23796;51.458;7.000;2023-07-31T03:50:27;17.30;98.50
37974;DHT22;23796;51.458;7.000;2023-07-31T03:52:52;17.30;98.50
37974;DHT22;23796;51.458;7.000;2023-07-31T03:55:18;17.30;98.50
37974;DHT22;23796;51.458;7.000;2023-07-31T03:57:44;17.30;98.10
37974;DHT22;23796;51.458;7.000;2023-07-31T04:00:10;17.30;98.10
37974;DHT22;23796;51.458;7.000;2023-07-31T04:02:35;17.30;98.00
37974;DHT22;23796;51.458;7.000;2023-07-31T04:05:01;17.30;98.00
37974;DHT22;23796;51.458;7.000;2023-07-31T04:07:27;17.30;97.70
37974;DHT22;23796;51.458;7.000;2023-07-31T04:09:52;17.40;97.80
37974;DHT22;23796;51.458;7.000;2023-07-31T04:12:18;17.40;97.60
37974;DHT22;23796;51.458;7.000;2023-07-31T04:14:43;17.40;97.60
37974;DHT22;23796;51.458;7.000;2023-07-31T04:17:11;17.50;97.60
37974;DHT22;23796;51.458;7.000;2023-07-31T04:19:37;17.50;97.50
37974;DHT22;23796;51.458;7.000;2023-07-31T04:22:03;17.50;97.50
37974;DHT22;23796;51.458;7.000;2023-07-31T04:24:28;17.50;97.70
37974;DHT22;23796;51.458;7.000;2023-07-31T04:26:54;17.50;97.90
37974;DHT22;23796;51.458;7.000;2023-07-31T04:29:20;17.50;97.70
37974;DHT22;23796;51.458;7.000;2023-07-31T04:31:48;17.50;97.80
37974;DHT22;23796;51.458;7.000;2023-07-31T04:34:13;17.50;97.80
37974;DHT22;23796;51.458;7.000;2023-07-31T04:36:39;17.50;98.00
37974;DHT22;23796;51.458;7.000;2023-07-31T04:39:07;17.50;98.20
37974;DHT22;23796;51.458;7.000;2023-07-31T04:41:33;17.50;98.30
37974;DHT22;23796;51.458;7.000;2023-07-31T04:43:58;17.60;98.30
37974;DHT22;23796;51.458;7.000;2023-07-31T04:46:24;17.60;98.30
37974;DHT22;23796;51.458;7.000;2023-07-31T04:48:51;17.60;98.20
37974;DHT22;23796;51.458;7.000;2023-07-31T04:51:16;17.60;98.20
37974;DHT22;23796;51.458;7.000;2023-07-31T04:53:42;17.60;98.10
37974;DHT22;23796;51.458;7.000;2023-07-31T04:56:08;17.70;97.80
37974;DHT22;23796;51.458;7.000;2023-07-31T04:58:36;17.70;97.90
37974;DHT22;23796;51.458;7.000;2023-07-31T05:01:01;17.70;97.90
37974;DHT22;23796;51.458;7.000;2023-07-31T05:03:29;17.70;98.10
37974;DHT22;23796;51.458;7.000;2023-07-31T05:05:55;17.70;98.20
37974;DHT22;23796;51.458;7.000;2023-07-31T05:08:20;17.70;98.10
37974;DHT22;23796;51.458;7.000;2023-07-31T05:10:46;17.70;97.90
37974;DHT22;23796;51.458;7.000;2023-07-31T05:13:14;17.70;98.10
37974;DHT22;23796;51.458;7.000;2023-07-31T05:15:42;17.70;98.20
37974;DHT22;23796;51.458;7.000;2023-07-31T05:18:08;17.80;98.00
37974;DHT22;23796;51.458;7.000;2023-07-31T05:20:33;17.80;98.00
37974;DHT22;23796;51.458;7.000;2023-07-31T05:22:59;17.80;98.00
37974;DHT22;23796;51.458;7.000;2023-07-31T05:25:27;17.80;98.00
37974;DHT22;23796;51.458;7.000;2023-07-31T05:27:52;17.80;97.80
37974;DHT22;23796;51.458;7.000;2023-07-31T05:30:18;17.90;97.80
37974;DHT22;23796;51.458;7.000;2023-07-31T05:32:44;17.90;97.70
37974;DHT22;23796;51.458;7.000;2023-07-31T05:35:12;17.90;97.60
37974;DHT22;23796;51.458;7.000;2023-07-31T05:37:38;17.90;97.40
37974;DHT22;23796;51.458;7.000;2023-07-31T05:40:04;17.90;97.30
37974;DHT22;23796;51.458;7.000;2023-07-31T05:42:32;17.90;97.30
37974;DHT22;23796;51.458;7.000;2023-07-31T05:44:57;18.00;97.30
37974;DHT22;23796;51.458;7.000;2023-07-31T05:47:23;18.00;97.60
37974;DHT22;23796;51.458;7.000;2023-07-31T05:49:49;18.00;98.20
37974;DHT22;23796;51.458;7.000;2023-07-31T05:52:18;17.90;98.10
37974;DHT22;23796;51.458;7.000;2023-07-31T05:54:44;17.90;98.20
37974;DHT22;23796;51.458;7.000;2023-07-31T05:57:11;17.90;98.50
37974;DHT22;23796;51.458;7.000;2023-07-31T05:59:37;17.90;98.30
37974;DHT22;23796;51.458;7.000;2023-07-31T06:02:02;17.90;98.50
37974;DHT22;23796;51.458;7.000;2023-07-31T06:04:28;17.90;98.70
37974;DHT22;23796;51.458;7.000;2023-07-31T06:06:53;17.90;98.50
37974;DHT22;23796;51.458;7.000;2023-07-31T06:09:19;18.00;98.40
37974;DHT22;23796;51.458;7.000;2023-07-31T06:11:45;18.10;98.10
37974;DHT22;23796;51.458;7.000;2023-07-31T06:14:13;18.10;98.00
37974;DHT22;23796;51.458;7.000;2023-07-31T06:16:40;18.10;97.80
37974;DHT22;23796;51.458;7.000;2023-07-31T06:19:11;18.20;97.70
37974;DHT22;23796;51.458;7.000;2023-07-31T06:21:38;18.30;97.40
37974;DHT22;23796;51.458;7.000;2023-07-31T06:24:05;18.30;97.30
37974;DHT22;23796;51.458;7.000;2023-07-31T06:26:32;18.30;97.30
37974;DHT22;23796;51.458;7.000;2023-07-31T06:28:58;18.30;97.80
37974;DHT22;23796;51.458;7.000;2023-07-31T06:31:26;18.30;98.10
37974;DHT22;23796;51.458;7.000;2023-07-31T06:33:54;18.30;98.40
37974;DHT22;23796;51.458;7.000;2023-07-31T06:36:20;18.30;98.60
37974;DHT22;23796;51.458;7.000;2023-07-31T06:38:45;18.30;98.60
37974;DHT22;23796;51.458;7.000;2023-07-31T06:41:11;18.30;98.80
37974;DHT22;23796;51.458;7.000;2023-07-31T06:43:37;18.20;98.90
37974;DHT22;23796;51.458;7.000;2023-07-31T06:46:06;18.20;99.00
37974;DHT22;23796;51.458;7.000;2023-07-31T06:48:33;18.20;98.80
37974;DHT22;23796;51.458;7.000;2023-07-31T06:51:02;18.10;98.90
37974;DHT22;23796;51.458;7.000;2023-07-31T06:53:28;18.10;99.10
37974;DHT22;23796;51.458;7.000;2023-07-31T06:55:54;18.10;99.20
37974;DHT22;23796;51.458;7.000;2023-07-31T06:58:20;18.10;99.20
37974;DHT22;23796;51.458;7.000;2023-07-31T07:00:48;18.00;99.20
37974;DHT22;23796;51.458;7.000;2023-07-31T07:03:15;18.00;99.50
37974;DHT22;23796;51.458;7.000;2023-07-31T07:05:41;18.00;99.90
37974;DHT22;23796;51.458;7.000;2023-07-31T07:08:07;18.10;99.80
37974;DHT22;23796;51.458;7.000;2023-07-31T07:10:33;18.10;99.70
37974;DHT22;23796;51.458;7.000;2023-07-31T07:12:58;18.10;99.60
37974;DHT22;23796;51.458;7.000;2023-07-31T07:15:24;18.10;99.90
37974;DHT22;23796;51.458;7.000;2023-07-31T07:17:50;18.10;99.90
37974;DHT22;23796;51.458;7.000;2023-07-31T07:20:16;18.10;99.90
37974;DHT22;23796;51.458;7.000;2023-07-31T07:22:41;18.10;99.90
37974;DHT22;23796;51.458;7.000;2023-07-31T07:25:08;18.20;99.90
37974;DHT22;23796;51.458;7.000;2023-07-31T07:27:34;18.20;99.80
37974;DHT22;23796;51.458;7.000;2023-07-31T07:30:00;18.30;99.90
37974;DHT22;23796;51.458;7.000;2023-07-31T07:32:28;18.30;99.60
37974;DHT22;23796;51.458;7.000;2023-07-31T07:34:54;18.30;99.60
37974;DHT22;23796;51.458;7.000;2023-07-31T07:37:20;18.30;99.90
37974;DHT22;23796;51.458;7.000;2023-07-31T07:39:48;18.30;99.70
37974;DHT22;23796;51.458;7.000;2023-07-31T07:42:16;18.20;99.80
37974;DHT22;23796;51.458;7.000;2023-07-31T07:44:41;18.40;99.70
37974;DHT22;23796;51.458;7.000;2023-07-31T07:47:07;18.40;99.20
37974;DHT22;23796;51.458;7.000;2023-07-31T07:49:34;18.30;99.20
37974;DHT22;23796;51.458;7.000;2023-07-31T07:52:00;18.30;99.50
37974;DHT22;23796;51.458;7.000;2023-07-31T07:54:26;18.40;99.20
37974;DHT22;23796;51.458;7.000;2023-07-31T07:56:54;18.40;99.20
37974;DHT22;23796;51.458;7.000;2023-07-31T07:59:20;18.30;99.20
37974;DHT22;23796;51.458;7.000;2023-07-31T08:01:45;18.20;99.60
37974;DHT22;23796;51.458;7.000;2023-07-31T08:04:11;18.10;99.80
37974;DHT22;23796;51.458;7.000;2023-07-31T08:06:36;18.10;99.60
37974;DHT22;23796;51.458;7.000;2023-07-31T08:09:02;18.10;99.90
37974;DHT22;23796;51.458;7.000;2023-07-31T08:11:33;18.00;99.90
37974;DHT22;23796;51.458;7.000;2023-07-31T08:13:59;18.20;99.60
37974;DHT22;23796;51.458;7.000;2023-07-31T08:16:24;18.10;99.60
37974;DHT22;23796;51.458;7.000;2023-07-31T08:18:50;18.20;99.70
37974;DHT22;23796;51.458;7.000;2023-07-31T08:21:16;18.50;98.90
37974;DHT22;23796;51.458;7.000;2023-07-31T08:23:41;18.50;98.30
37974;DHT22;23796;51.458;7.000;2023-07-31T08:26:07;18.60;98.70
37974;DHT22;23796;51.458;7.000;2023-07-31T08:28:32;18.50;98.30
37974;DHT22;23796;51.458;7.000;2023-07-31T08:30:58;18.40;98.90
37974;DHT22;23796;51.458;7.000;2023-07-31T08:33:26;18.50;98.80
37974;DHT22;23796;51.458;7.000;2023-07-31T08:35:52;18.60;98.10
37974;DHT22;23796;51.458;7.000;2023-07-31T08:38:17;18.70;98.10
37974;DHT22;23796;51.458;7.000;2023-07-31T08:57:48;18.70;97.50
37974;DHT22;23796;51.458;7.000;2023-07-31T09:00:14;18.70;97.50
37974;DHT22;23796;51.458;7.000;2023-07-31T09:02:52;18.70;97.50
37974;DHT22;23796;51.458;7.000;2023-07-31T09:05:19;18.90;97.00
37974;DHT22;23796;51.458;7.000;2023-07-31T09:07:50;19.00;96.60
37974;DHT22;23796;51.458;7.000;2023-07-31T09:10:16;19.00;96.90
37974;DHT22;23796;51.458;7.000;2023-07-31T09:12:42;18.80;97.00
37974;DHT22;23796;51.458;7.000;2023-07-31T09:15:11;18.80;97.80
37974;DHT22;23796;51.458;7.000;2023-07-31T09:17:37;18.70;98.00
37974;DHT22;23796;51.458;7.000;2023-07-31T09:20:20;18.70;98.00
37974;DHT22;23796;51.458;7.000;2023-07-31T09:22:47;18.60;98.00
37974;DHT22;23796;51.458;7.000;2023-07-31T09:25:25;18.70;98.40
37974;DHT22;23796;51.458;7.000;2023-07-31T09:28:00;18.70;97.80
37974;DHT22;23796;51.458;7.000;2023-07-31T09:30:26;18.70;97.90
37974;DHT22;23796;51.458;7.000;2023-07-31T09:33:01;18.80;98.30
37974;DHT22;23796;51.458;7.000;2023-07-31T09:35:30;18.90;97.80
37974;DHT22;23796;51.458;7.000;2023-07-31T09:37:58;18.80;97.70
37974;DHT22;23796;51.458;7.000;2023-07-31T09:40:32;18.90;97.80
37974;DHT22;23796;51.458;7.000;2023-07-31T09:43:03;18.90;97.80
37974;DHT22;23796;51.458;7.000;2023-07-31T09:45:33;19.00;97.00
37974;DHT22;23796;51.458;7.000;2023-07-31T09:48:01;19.00;97.60
37974;DHT22;23796;51.458;7.000;2023-07-31T09:50:28;19.10;97.10
37974;DHT22;23796;51.458;7.000;2023-07-31T09:52:54;19.10;97.10
37974;DHT22;23796;51.458;7.000;2023-07-31T09:55:20;19.20;97.10
37974;DHT22;23796;51.458;7.000;2023-07-31T09:57:47;19.20;97.10
37974;DHT22;23796;51.458;7.000;2023-07-31T10:00:18;19.20;97.20
37974;DHT22;23796;51.458;7.000;2023-07-31T10:02:47;19.10;96.70
37974;DHT22;23796;51.458;7.000;2023-07-31T10:05:19;19.20;97.20
37974;DHT22;23796;51.458;7.000;2023-07-31T10:07:55;19.20;97.10
37974;DHT22;23796;51.458;7.000;2023-07-31T10:10:25;19.10;97.00
37974;DHT22;23796;51.458;7.000;2023-07-31T10:12:56;19.00;97.20
37974;DHT22;23796;51.458;7.000;2023-07-31T10:15:22;19.00;97.40
37974;DHT22;23796;51.458;7.000;2023-07-31T10:17:49;19.00;97.50
37974;DHT22;23796;51.458;7.000;2023-07-31T10:20:16;18.90;97.90
37974;DHT22;23796;51.458;7.000;2023-07-31T10:22:43;18.80;98.50
37974;DHT22;23796;51.458;7.000;2023-07-31T10:25:09;18.80;98.70
37974;DHT22;23796;51.458;7.000;2023-07-31T10:27:45;18.70;98.70
37974;DHT22;23796;51.458;7.000;2023-07-31T10:30:15;18.70;98.80
37974;DHT22;23796;51.458;7.000;2023-07-31T10:32:43;18.70;98.70
37974;DHT22;23796;51.458;7.000;2023-07-31T10:35:09;18.70;98.70
37974;DHT22;23796;51.458;7.000;2023-07-31T10:37:41;18.70;99.10
37974;DHT22;23796;51.458;7.000;2023-07-31T10:40:17;18.60;99.30
37974;DHT22;23796;51.458;7.000;2023-07-31T10:42:55;18.60;99.40
37974;DHT22;23796;51.458;7.000;2023-07-31T10:45:39;18.70;99.20
37974;DHT22;23796;51.458;7.000;2023-07-31T10:48:13;18.70;98.30
37974;DHT22;23796;51.458;7.000;2023-07-31T10:50:51;18.80;98.60
37974;DHT22;23796;51.458;7.000;2023-07-31T10:53:30;19.00;98.10
37974;DHT22;23796;51.458;7.000;2023-07-31T10:55:59;19.20;97.60
37974;DHT22;23796;51.458;7.000;2023-07-31T10:58:28;19.30;96.50
37974;DHT22;23796;51.458;7.000;2023-07-31T11:01:01;19.30;96.50
37974;DHT22;23796;51.458;7.000;2023-07-31T11:03:46;19.40;96.80
37974;DHT22;23796;51.458;7.000;2023-07-31T11:06:17;19.60;95.90
37974;DHT22;23796;51.458;7.000;2023-07-31T11:08:45;19.70;95.70
37974;DHT22;23796;51.458;7.000;2023-07-31T11:11:18;19.70;95.90
37974;DHT22;23796;51.458;7.000;2023-07-31T11:16:19;19.80;95.40
37974;DHT22;23796;51.458;7.000;2023-07-31T11:18:46;19.60;95.20
37974;DHT22;23796;51.458;7.000;2023-07-31T11:21:18;19.60;95.30
37974;DHT22;23796;51.458;7.000;2023-07-31T11:23:51;19.80;95.20
37974;DHT22;23796;51.458;7.000;2023-07-31T11:26:17;19.90;94.70
37974;DHT22;23796;51.458;7.000;2023-07-31T11:28:48;20.20;94.40
37974;DHT22;23796;51.458;7.000;2023-07-31T11:31:14;20.30;93.70
37974;DHT22;23796;51.458;7.000;2023-07-31T11:33:43;20.30;93.50
37974;DHT22;23796;51.458;7.000;2023-07-31T11:36:19;20.30;93.70
37974;DHT22;23796;51.458;7.000;2023-07-31T11:38:45;20.60;93.00
37974;DHT22;23796;51.458;7.000;2023-07-31T11:41:13;20.80;92.10
37974;DHT22;23796;51.458;7.000;2023-07-31T11:43:39;21.00;91.90
37974;DHT22;23796;51.458;7.000;2023-07-31T11:46:04;20.90;91.50
37974;DHT22;23796;51.458;7.000;2023-07-31T11:48:34;20.90;91.40
37974;DHT22;23796;51.458;7.000;2023-07-31T11:51:03;20.90;91.30
37974;DHT22;23796;51.458;7.000;2023-07-31T11:53:44;20.90;91.70
37974;DHT22;23796;51.458;7.000;2023-07-31T11:56:14;20.70;91.70
37974;DHT22;23796;51.458;7.000;2023-07-31T11:58:41;20.90;91.60
37974;DHT22;23796;51.458;7.000;2023-07-31T12:01:09;20.80;91.80
37974;DHT22;23796;51.458;7.000;2023-07-31T12:03:35;20.80;91.90
37974;DHT22;23796;51.458;7.000;2023-07-31T12:06:03;20.80;92.40
37974;DHT22;23796;51.458;7.000;2023-07-31T12:08:29;20.70;92.60
37974;DHT22;23796;51.458;7.000;2023-07-31T12:11:04;20.50;93.00
37974;DHT22;23796;51.458;7.000;2023-07-31T12:13:32;20.50;93.80
37974;DHT22;23796;51.458;7.000;2023-07-31T12:16:02;20.30;94.00
37974;DHT22;23796;51.458;7.000;2023-07-31T12:18:30;20.10;93.90
37974;DHT22;23796;51.458;7.000;2023-07-31T12:21:00;19.90;95.10
37974;DHT22;23796;51.458;7.000;2023-07-31T12:26:09;19.80;95.30
37974;DHT22;23796;51.458;7.000;2023-07-31T12:28:46;19.80;95.50
37974;DHT22;23796;51.458;7.000;2023-07-31T12:33:39;19.80;96.10
37974;DHT22;23796;51.458;7.000;2023-07-31T12:36:11;19.80;95.90
37974;DHT22;23796;51.458;7.000;2023-07-31T12:38:37;19.80;95.90
37974;DHT22;23796;51.458;7.000;2023-07-31T12:41:05;19.90;95.70
37974;DHT22;23796;51.458;7.000;2023-07-31T12:43:35;20.00;95.40
37974;DHT22;23796;51.458;7.000;2023-07-31T12:46:02;20.30;94.40
37974;DHT22;23796;51.458;7.000;2023-07-31T12:48:27;20.50;93.70
37974;DHT22;23796;51.458;7.000;2023-07-31T12:50:55;20.70;93.30
37974;DHT22;23796;51.458;7.000;2023-07-31T12:53:21;20.70;92.90
37974;DHT22;23796;51.458;7.000;2023-07-31T12:55:49;20.60;93.10
37974;DHT22;23796;51.458;7.000;2023-07-31T12:58:15;20.50;93.20
37974;DHT22;23796;51.458;7.000;2023-07-31T13:00:43;20.40;93.40
37974;DHT22;23796;51.458;7.000;2023-07-31T13:03:11;20.40;93.80
37974;DHT22;23796;51.458;7.000;2023-07-31T13:05:39;20.40;93.80
37974;DHT22;23796;51.458;7.000;2023-07-31T13:08:04;20.30;94.00
37974;DHT22;23796;51.458;7.000;2023-07-31T13:10:30;20.20;94.60
37974;DHT22;23796;51.458;7.000;2023-07-31T13:12:56;20.20;94.60
37974;DHT22;23796;51.458;7.000;2023-07-31T13:15:24;20.20;94.90
37974;DHT22;23796;51.458;7.000;2023-07-31T13:17:52;20.20;94.90
37974;DHT22;23796;51.458;7.000;2023-07-31T13:20:17;20.30;94.90
37974;DHT22;23796;51.458;7.000;2023-07-31T13:22:45;20.40;94.60
37974;DHT22;23796;51.458;7.000;2023-07-31T13:25:13;20.70;93.90
37974;DHT22;23796;51.458;7.000;2023-07-31T13:27:39;20.90;93.10
37974;DHT22;23796;51.458;7.000;2023-07-31T13:30:05;20.80;92.60
37974;DHT22;23796;51.458;7.000;2023-07-31T13:32:31;20.80;93.20
37974;DHT22;23796;51.458;7.000;2023-07-31T13:34:56;20.60;93.40
37974;DHT22;23796;51.458;7.000;2023-07-31T13:37:22;20.40;94.00
37974;DHT22;23796;51.458;7.000;2023-07-31T13:39:48;20.30;93.90
37974;DHT22;23796;51.458;7.000;2023-07-31T13:42:13;20.30;94.40
37974;DHT22;23796;51.458;7.000;2023-07-31T13:44:39;20.40;94.10
37974;DHT22;23796;51.458;7.000;2023-07-31T13:47:06;20.40;94.20
37974;DHT22;23796;51.458;7.000;2023-07-31T13:49:32;20.40;94.30
37974;DHT22;23796;51.458;7.000;2023-07-31T13:51:57;20.40;94.40
37974;DHT22;23796;51.458;7.000;2023-07-31T13:54:28;20.30;94.00
37974;DHT22;23796;51.458;7.000;2023-07-31T13:56:53;20.20;94.30
37974;DHT22;23796;51.458;7.000;2023-07-31T13:59:19;20.30;94.20
37974;DHT22;23796;51.458;7.000;2023-07-31T14:01:45;20.40;94.30
37974;DHT22;23796;51.458;7.000;2023-07-31T14:04:11;20.50;93.80
37974;DHT22;23796;51.458;7.000;2023-07-31T14:06:37;20.50;93.60
37974;DHT22;23796;51.458;7.000;2023-07-31T14:09:03;20.80;92.50
37974;DHT22;23796;51.458;7.000;2023-07-31T14:11:30;21.10;91.80
37974;DHT22;23796;51.458;7.000;2023-07-31T14:13:59;21.40;90.90
37974;DHT22;23796;51.458;7.000;2023-07-31T14:16:28;21.60;90.20
37974;DHT22;23796;51.458;7.000;2023-07-31T14:18:54;21.80;89.10
37974;DHT22;23796;51.458;7.000;2023-07-31T14:21:19;21.60;89.50
37974;DHT22;23796;51.458;7.000;2023-07-31T14:23:45;21.70;89.10
37974;DHT22;23796;51.458;7.000;2023-07-31T14:26:11;21.80;89.00
37974;DHT22;23796;51.458;7.000;2023-07-31T14:28:39;21.80;88.50
37974;DHT22;23796;51.458;7.000;2023-07-31T14:31:05;21.70;88.60
37974;DHT22;23796;51.458;7.000;2023-07-31T14:33:30;21.60;88.80
37974;DHT22;23796;51.458;7.000;2023-07-31T14:35:56;21.30;89.30
37974;DHT22;23796;51.458;7.000;2023-07-31T14:38:22;21.20;89.90
37974;DHT22;23796;51.458;7.000;2023-07-31T14:40:47;21.20;89.60
37974;DHT22;23796;51.458;7.000;2023-07-31T14:43:13;21.10;89.60
37974;DHT22;23796;51.458;7.000;2023-07-31T14:45:41;20.90;89.50
37974;DHT22;23796;51.458;7.000;2023-07-31T14:48:07;20.80;90.00
37974;DHT22;23796;51.458;7.000;2023-07-31T14:50:35;20.70;90.60
37974;DHT22;23796;51.458;7.000;2023-07-31T14:53:01;20.60;91.30
37974;DHT22;23796;51.458;7.000;2023-07-31T14:55:29;20.60;92.20
37974;DHT22;23796;51.458;7.000;2023-07-31T14:58:00;20.50;92.70
37974;DHT22;23796;51.458;7.000;2023-07-31T15:00:25;20.50;93.20
37974;DHT22;23796;51.458;7.000;2023-07-31T15:02:58;20.50;93.20
37974;DHT22;23796;51.458;7.000;2023-07-31T15:05:26;20.50;93.60
37974;DHT22;23796;51.458;7.000;2023-07-31T15:07:56;20.40;94.00
37974;DHT22;23796;51.458;7.000;2023-07-31T15:10:21;20.40;94.40
37974;DHT22;23796;51.458;7.000;2023-07-31T15:12:47;20.40;94.40
37974;DHT22;23796;51.458;7.000;2023-07-31T15:15:15;20.20;94.40
37974;DHT22;23796;51.458;7.000;2023-07-31T15:17:41;20.00;94.60
37974;DHT22;23796;51.458;7.000;2023-07-31T15:20:07;20.10;94.60
37974;DHT22;23796;51.458;7.000;2023-07-31T15:22:35;20.10;93.80
37974;DHT22;23796;51.458;7.000;2023-07-31T15:25:00;20.10;94.20
37974;DHT22;23796;51.458;7.000;2023-07-31T15:27:26;20.10;93.90
37974;DHT22;23796;51.458;7.000;2023-07-31T15:29:52;20.10;93.60
37974;DHT22;23796;51.458;7.000;2023-07-31T15:32:21;20.10;93.50
37974;DHT22;23796;51.458;7.000;2023-07-31T15:34:47;20.10;93.20
37974;DHT22;23796;51.458;7.000;2023-07-31T15:37:15;20.10;93.10
37974;DHT22;23796;51.458;7.000;2023-07-31T15:39:43;20.10;92.60
37974;DHT22;23796;51.458;7.000;2023-07-31T15:42:08;20.10;92.60
37974;DHT22;23796;51.458;7.000;2023-07-31T15:44:34;20.20;92.40
37974;DHT22;23796;51.458;7.000;2023-07-31T15:47:00;20.20;92.40
37974;DHT22;23796;51.458;7.000;2023-07-31T15:49:25;20.10;92.40
37974;DHT22;23796;51.458;7.000;2023-07-31T15:51:51;20.20;92.20
37974;DHT22;23796;51.458;7.000;2023-07-31T15:54:17;20.20;91.90
37974;DHT22;23796;51.458;7.000;2023-07-31T15:56:43;20.20;91.40